createdAt,value
2022-11-30T00:00:31.172Z,26.33
2022-11-30T00:03:17.943Z,25.30
2022-11-30T00:06:06.009Z,27.07
2022-11-30T00:08:55.046Z,26.77
2022-11-30T00:11:41.604Z,25.60
2022-11-30T00:14:30.062Z,23.33
2022-11-30T00:17:17.292Z,25.47
2022-11-30T00:20:03.923Z,25.33
2022-11-30T00:22:50.448Z,27.40
2022-11-30T00:25:38.239Z,29.27
2022-11-30T00:28:24.784Z,27.93
2022-11-30T00:31:14.979Z,26.63
2022-11-30T00:34:01.773Z,27.43
2022-11-30T00:36:48.239Z,28.10
2022-11-30T00:39:35.787Z,25.60
2022-11-30T00:42:22.824Z,29.73
2022-11-30T00:45:10.292Z,29.30
2022-11-30T00:47:58.408Z,24.17
2022-11-30T00:50:45.104Z,27.57
2022-11-30T00:53:31.811Z,25.43
2022-11-30T00:56:18.380Z,27.27
2022-11-30T00:59:05.308Z,27.00
2022-11-30T01:01:51.751Z,21.97
2022-11-30T01:04:40.164Z,26.03
2022-11-30T01:07:26.976Z,28.40
2022-11-30T01:10:13.394Z,29.40
2022-11-30T01:12:59.840Z,25.17
2022-11-30T01:15:46.461Z,24.60
2022-11-30T01:18:32.851Z,24.30
2022-11-30T01:21:22.880Z,23.53
2022-11-30T01:24:10.658Z,24.93
2022-11-30T01:26:57.194Z,22.73
2022-11-30T01:29:43.599Z,23.60
2022-11-30T01:32:30.222Z,20.83
2022-11-30T01:35:17.007Z,26.63
2022-11-30T01:38:05.064Z,25.87
2022-11-30T01:40:52.007Z,26.07
2022-11-30T01:43:41.180Z,27.83
2022-11-30T01:46:33.275Z,27.13
2022-11-30T01:49:24.832Z,26.43
2022-11-30T01:52:14.872Z,27.07
2022-11-30T01:55:14.751Z,26.13
2022-11-30T01:58:06.366Z,23.37
2022-11-30T02:00:52.939Z,21.67
2022-11-30T02:03:47.309Z,21.37
2022-11-30T02:06:34.066Z,22.93
2022-11-30T02:09:22.544Z,24.37
2022-11-30T02:12:20.226Z,25.77
2022-11-30T02:15:12.124Z,27.03
2022-11-30T02:18:06.934Z,22.00
2022-11-30T02:21:07.392Z,25.97
2022-11-30T02:24:24.128Z,20.00
2022-11-30T02:27:28.939Z,26.30
2022-11-30T02:30:19.962Z,25.93
2022-11-30T02:33:11.547Z,27.17
2022-11-30T02:36:00.625Z,28.07
2022-11-30T02:38:47.772Z,30.20
2022-11-30T02:41:39.100Z,26.63
2022-11-30T02:44:26.485Z,25.53
2022-11-30T02:47:28.127Z,26.70
2022-11-30T02:50:18.915Z,30.93
2022-11-30T02:53:05.892Z,29.03
2022-11-30T02:55:52.391Z,27.13
2022-11-30T02:58:38.979Z,26.57
2022-11-30T03:01:26.448Z,30.13
2022-11-30T03:04:14.672Z,29.13
2022-11-30T03:07:01.619Z,29.97
2022-11-30T03:09:48.347Z,24.73
2022-11-30T03:12:34.796Z,30.33
2022-11-30T03:15:21.551Z,31.17
2022-11-30T03:18:07.954Z,31.60
2022-11-30T03:20:55.965Z,27.20
2022-11-30T03:23:42.778Z,29.53
2022-11-30T03:26:29.629Z,28.27
2022-11-30T03:29:16.079Z,26.27
2022-11-30T03:32:02.666Z,23.43
2022-11-30T03:34:49.501Z,23.90
2022-11-30T03:37:37.575Z,23.47
2022-11-30T03:40:24.302Z,22.93
2022-11-30T03:43:10.800Z,19.90
2022-11-30T03:45:57.283Z,17.70
2022-11-30T03:48:43.571Z,18.83
2022-11-30T03:51:30.250Z,18.13
2022-11-30T03:54:17.952Z,18.40
2022-11-30T03:57:04.860Z,20.47
2022-11-30T03:59:51.803Z,18.97
2022-11-30T04:02:44.264Z,18.77
2022-11-30T04:05:31.440Z,15.50
2022-11-30T04:08:18.072Z,18.50
2022-11-30T04:11:06.854Z,16.80
2022-11-30T04:13:53.684Z,16.80
2022-11-30T04:16:40.044Z,16.50
2022-11-30T04:19:26.552Z,16.43
2022-11-30T04:22:13.108Z,15.27
2022-11-30T04:24:59.573Z,15.17
2022-11-30T04:27:48.363Z,16.97
2022-11-30T04:30:35.932Z,18.97
2022-11-30T04:33:22.736Z,18.77
2022-11-30T04:36:18.653Z,18.80
2022-11-30T04:39:05.385Z,18.23
2022-11-30T04:41:52.016Z,15.27
2022-11-30T04:44:40.215Z,18.63
2022-11-30T04:47:26.998Z,19.13
2022-11-30T04:50:13.478Z,20.20
2022-11-30T04:53:00.031Z,16.40
2022-11-30T04:55:46.799Z,18.00
2022-11-30T04:58:33.229Z,20.73
2022-11-30T05:01:21.269Z,19.60
2022-11-30T05:04:08.119Z,20.60
2022-11-30T05:06:54.986Z,22.00
2022-11-30T05:09:41.521Z,23.77
2022-11-30T05:12:28.191Z,20.60
2022-11-30T05:15:14.720Z,23.07
2022-11-30T05:18:03.339Z,22.90
2022-11-30T05:20:50.299Z,22.60
2022-11-30T05:23:36.763Z,21.23
2022-11-30T05:26:23.281Z,20.63
2022-11-30T05:29:09.972Z,23.37
2022-11-30T05:31:56.344Z,21.63
2022-11-30T05:34:50.567Z,21.13
2022-11-30T05:37:38.455Z,20.00
2022-11-30T05:40:25.744Z,19.73
2022-11-30T05:43:12.741Z,19.07
2022-11-30T05:46:01.885Z,20.80
2022-11-30T05:48:48.515Z,20.77
2022-11-30T05:51:36.462Z,20.33
2022-11-30T05:54:23.259Z,19.40
2022-11-30T05:57:09.717Z,20.73
2022-11-30T05:59:56.152Z,17.20
2022-11-30T06:02:42.959Z,18.63
2022-11-30T06:05:29.637Z,21.53
2022-11-30T06:08:17.855Z,16.90
2022-11-30T06:11:04.795Z,19.53
2022-11-30T06:13:51.371Z,18.77
2022-11-30T06:16:39.598Z,18.47
2022-11-30T06:19:26.579Z,22.13
2022-11-30T06:22:13.016Z,17.03
2022-11-30T06:25:00.855Z,20.00
2022-11-30T06:27:47.232Z,16.40
2022-11-30T06:30:33.672Z,18.67
2022-11-30T06:33:23.563Z,15.50
2022-11-30T06:36:10.944Z,16.60
2022-11-30T06:38:57.827Z,17.30
2022-11-30T06:41:48.851Z,17.50
2022-11-30T06:44:37.868Z,18.80
2022-11-30T06:47:24.404Z,19.07
2022-11-30T06:50:12.371Z,18.97
2022-11-30T06:52:59.148Z,15.00
2022-11-30T06:55:45.609Z,20.37
2022-11-30T06:58:34.080Z,15.13
2022-11-30T07:01:21.348Z,15.33
2022-11-30T07:04:08.256Z,15.17
2022-11-30T07:06:54.697Z,16.53
2022-11-30T07:09:41.616Z,16.93
2022-11-30T07:12:28.464Z,15.63
2022-11-30T07:15:16.925Z,16.80
2022-11-30T07:18:03.688Z,17.73
2022-11-30T07:20:50.290Z,17.57
2022-11-30T07:23:56.585Z,20.40
2022-11-30T07:26:43.728Z,25.00
2022-11-30T07:29:30.663Z,20.97
2022-11-30T07:32:18.919Z,17.90
2022-11-30T07:35:06.096Z,18.70
2022-11-30T07:37:52.888Z,21.50
2022-11-30T07:40:39.475Z,20.63
2022-11-30T07:43:26.006Z,23.47
2022-11-30T07:46:14.820Z,20.93
2022-11-30T07:49:03.146Z,21.53
2022-11-30T07:51:50.184Z,23.30
2022-11-30T07:54:36.932Z,22.93
2022-11-30T07:57:23.462Z,22.13
2022-11-30T08:00:11.426Z,22.87
2022-11-30T08:02:57.992Z,19.90
2022-11-30T08:05:45.955Z,24.53
2022-11-30T08:08:33.938Z,22.47
2022-11-30T08:11:22.303Z,26.90
2022-11-30T08:14:09.968Z,27.80
2022-11-30T08:16:56.447Z,30.33
2022-11-30T08:19:43.362Z,24.77
2022-11-30T08:22:31.111Z,28.67
2022-11-30T08:25:17.892Z,28.63
2022-11-30T08:28:05.507Z,28.70
2022-11-30T08:30:52.323Z,32.40
2022-11-30T08:33:39.805Z,32.00
2022-11-30T08:36:28.078Z,33.87
2022-11-30T08:39:16.565Z,33.97
2022-11-30T08:42:03.213Z,30.27
2022-11-30T08:44:49.828Z,33.07
2022-11-30T08:47:36.447Z,32.10
2022-11-30T08:50:23.395Z,37.00
2022-11-30T08:53:09.820Z,32.93
2022-11-30T08:55:59.316Z,33.60
2022-11-30T08:58:46.573Z,42.37
2022-11-30T09:01:33.398Z,35.47
2022-11-30T09:04:19.896Z,31.10
2022-11-30T09:07:06.745Z,31.57
2022-11-30T09:09:53.431Z,30.47
2022-11-30T09:12:42.486Z,30.53
2022-11-30T09:15:28.903Z,35.43
2022-11-30T09:18:15.466Z,33.97
2022-11-30T09:21:03.238Z,28.60
2022-11-30T09:23:50.650Z,30.90
2022-11-30T09:26:37.356Z,36.73
2022-11-30T09:29:25.543Z,36.43
2022-11-30T09:32:11.978Z,31.80
2022-11-30T09:34:58.447Z,29.90
2022-11-30T09:37:44.827Z,32.30
2022-11-30T09:40:35.483Z,31.33
2022-11-30T09:43:36.016Z,33.80
2022-11-30T09:46:29.601Z,29.60
2022-11-30T09:49:20.393Z,34.00
2022-11-30T09:52:13.719Z,37.40
2022-11-30T09:55:03.360Z,27.37
2022-11-30T09:57:52.596Z,28.33
2022-11-30T10:00:40.763Z,28.90
2022-11-30T10:03:28.930Z,28.80
2022-11-30T10:06:23.700Z,29.70
2022-11-30T10:09:26.353Z,33.07
2022-11-30T10:12:20.614Z,31.77
2022-11-30T10:15:19.984Z,31.57
2022-11-30T10:18:17.154Z,30.43
2022-11-30T10:21:15.663Z,30.80
2022-11-30T10:24:25.701Z,32.53
2022-11-30T10:27:18.468Z,26.13
2022-11-30T10:30:15.205Z,32.00
2022-11-30T10:33:06.481Z,35.03
2022-11-30T10:35:55.343Z,31.60
2022-11-30T10:38:49.145Z,33.57
2022-11-30T10:41:43.159Z,34.17
2022-11-30T10:44:35.365Z,36.20
2022-11-30T10:47:26.489Z,35.67
2022-11-30T10:50:16.986Z,33.03
2022-11-30T10:53:03.764Z,34.70
2022-11-30T10:55:59.876Z,37.13
2022-11-30T10:58:55.394Z,34.30
2022-11-30T11:01:43.326Z,36.87
2022-11-30T11:04:33.549Z,31.40
2022-11-30T11:07:20.697Z,30.60
2022-11-30T11:10:14.153Z,30.53
2022-11-30T11:13:02.329Z,31.67
2022-11-30T11:15:58.653Z,28.00
2022-11-30T11:18:55.243Z,31.37
2022-11-30T11:21:48.979Z,33.83
2022-11-30T11:24:36.630Z,35.40
2022-11-30T11:27:27.927Z,38.53
2022-11-30T11:30:19.551Z,36.03
2022-11-30T11:33:20.882Z,36.03
2022-11-30T11:36:15.840Z,38.63
2022-11-30T11:39:03.083Z,34.07
2022-11-30T11:41:49.855Z,34.27
2022-11-30T11:44:36.396Z,37.07
2022-11-30T11:47:27.734Z,41.63
2022-11-30T11:50:58.204Z,36.90
2022-11-30T11:53:53.923Z,37.67
2022-11-30T11:56:41.052Z,39.07
2022-11-30T11:59:41.856Z,39.40
2022-11-30T12:02:36.773Z,38.07
2022-11-30T12:05:28.110Z,35.37
2022-11-30T12:08:19.425Z,43.33
2022-11-30T12:11:10.893Z,36.23
2022-11-30T12:13:57.417Z,38.70
2022-11-30T12:16:58.936Z,42.70
2022-11-30T12:19:58.000Z,43.77
2022-11-30T12:22:57.803Z,45.10
2022-11-30T12:25:50.885Z,44.17
2022-11-30T12:28:48.139Z,42.57
2022-11-30T12:31:46.753Z,43.60
2022-11-30T12:34:48.947Z,40.37
2022-11-30T12:37:49.556Z,43.57
2022-11-30T12:40:44.632Z,42.37
2022-11-30T12:43:41.776Z,49.03
2022-11-30T12:46:35.498Z,41.47
2022-11-30T12:49:40.454Z,50.23
2022-11-30T12:52:38.958Z,48.90
2022-11-30T12:55:36.971Z,46.77
2022-11-30T12:58:32.082Z,48.40
2022-11-30T13:01:35.185Z,45.07
2022-11-30T13:04:27.938Z,51.10
2022-11-30T13:07:26.435Z,44.20
2022-11-30T13:10:27.129Z,48.57
2022-11-30T13:13:20.812Z,46.40
2022-11-30T13:16:10.015Z,48.50
2022-11-30T13:19:02.902Z,49.77
2022-11-30T13:21:55.010Z,49.17
2022-11-30T13:24:46.828Z,45.07
2022-11-30T13:27:41.771Z,46.67
2022-11-30T13:30:35.845Z,44.10
2022-11-30T13:33:48.230Z,48.00
2022-11-30T13:36:39.070Z,42.23
2022-11-30T13:39:26.995Z,43.30
2022-11-30T13:42:38.132Z,45.63
2022-11-30T13:45:33.347Z,47.47
2022-11-30T13:48:33.017Z,44.93
2022-11-30T13:51:35.571Z,43.20
2022-11-30T13:54:39.902Z,46.77
2022-11-30T13:58:05.892Z,46.80
2022-11-30T14:01:26.789Z,46.63
2022-11-30T14:04:33.262Z,48.83
2022-11-30T14:07:35.948Z,44.77
2022-11-30T14:10:29.535Z,47.57
2022-11-30T14:13:31.444Z,48.57
2022-11-30T14:16:23.995Z,52.10
2022-11-30T14:19:12.283Z,45.50
2022-11-30T14:21:59.864Z,55.80
2022-11-30T14:24:49.092Z,46.13
2022-11-30T14:27:37.681Z,49.17
2022-11-30T14:30:25.531Z,39.63
2022-11-30T14:33:19.757Z,45.37
2022-11-30T14:36:09.441Z,47.37
2022-11-30T14:38:56.242Z,44.20
2022-11-30T14:41:43.153Z,44.60
2022-11-30T14:44:34.668Z,51.93
2022-11-30T14:47:25.215Z,48.30
2022-11-30T14:50:23.312Z,43.93
2022-11-30T14:53:23.281Z,46.17
2022-11-30T14:56:17.865Z,48.60
2022-11-30T14:59:22.308Z,44.77
2022-11-30T15:02:29.442Z,42.03
2022-11-30T15:05:19.195Z,48.70
2022-11-30T15:08:11.437Z,43.97
2022-11-30T15:11:05.723Z,44.97
2022-11-30T15:13:56.008Z,42.83
2022-11-30T15:16:49.145Z,45.27
2022-11-30T15:19:35.748Z,45.30
2022-11-30T15:22:23.762Z,40.63
2022-11-30T15:25:13.590Z,48.30
2022-11-30T15:28:01.972Z,43.30
2022-11-30T15:30:52.942Z,51.67
2022-11-30T15:33:43.723Z,50.30
2022-11-30T15:36:35.218Z,50.70
2022-11-30T15:39:24.247Z,55.90
2022-11-30T15:42:21.407Z,58.10
2022-11-30T15:45:22.106Z,54.37
2022-11-30T15:48:29.154Z,58.77
2022-11-30T15:51:24.630Z,65.27
2022-11-30T15:54:11.515Z,56.10
2022-11-30T15:56:58.542Z,59.07
2022-11-30T15:59:45.593Z,53.80
2022-11-30T16:02:35.834Z,52.97
2022-11-30T16:05:27.746Z,60.30
2022-11-30T16:08:16.905Z,57.80
2022-11-30T16:11:08.036Z,52.50
2022-11-30T16:13:54.891Z,53.00
2022-11-30T16:16:41.388Z,54.90
2022-11-30T16:19:29.612Z,55.03
2022-11-30T16:22:17.340Z,51.00
2022-11-30T16:25:04.200Z,57.53
2022-11-30T16:27:53.269Z,48.27
2022-11-30T16:30:40.499Z,57.60
2022-11-30T16:33:27.340Z,50.53
2022-11-30T16:36:18.275Z,49.37
2022-11-30T16:39:04.961Z,53.10
2022-11-30T16:41:51.787Z,52.67
2022-11-30T16:44:38.198Z,62.77
2022-11-30T16:47:24.696Z,56.93
2022-11-30T16:50:12.351Z,50.17
2022-11-30T16:53:00.209Z,50.47
2022-11-30T16:55:46.958Z,52.27
2022-11-30T16:58:33.354Z,48.03
2022-11-30T17:01:31.556Z,54.73
2022-11-30T17:04:24.483Z,63.20
2022-11-30T17:07:11.195Z,59.30
2022-11-30T17:09:59.108Z,61.47
2022-11-30T17:12:46.012Z,55.87
2022-11-30T17:15:32.792Z,48.93
2022-11-30T17:18:19.304Z,57.03
2022-11-30T17:21:06.242Z,50.50
2022-11-30T17:23:52.999Z,50.73
2022-11-30T17:26:41.504Z,46.80
2022-11-30T17:29:27.927Z,40.40
2022-11-30T17:32:14.364Z,52.40
2022-11-30T17:35:00.818Z,44.67
2022-11-30T17:37:47.588Z,44.23
2022-11-30T17:40:34.256Z,52.03
2022-11-30T17:43:22.122Z,43.53
2022-11-30T17:46:11.069Z,43.70
2022-11-30T17:48:57.757Z,51.03
2022-11-30T17:51:44.287Z,44.93
2022-11-30T17:54:31.257Z,47.10
2022-11-30T17:57:17.734Z,56.50
2022-11-30T18:00:07.213Z,51.60
2022-11-30T18:02:54.402Z,48.17
2022-11-30T18:05:41.444Z,46.30
2022-11-30T18:08:27.954Z,55.57
2022-11-30T18:11:16.715Z,47.70
2022-11-30T18:14:04.192Z,51.27
2022-11-30T18:16:52.113Z,56.33
2022-11-30T18:19:38.772Z,54.97
2022-11-30T18:22:25.356Z,56.43
2022-11-30T18:25:15.540Z,54.83
2022-11-30T18:28:02.598Z,46.03
2022-11-30T18:30:53.492Z,51.47
2022-11-30T18:33:41.418Z,59.10
2022-11-30T18:36:29.178Z,52.30
2022-11-30T18:39:15.920Z,56.93
2022-11-30T18:42:02.684Z,59.57
2022-11-30T18:44:49.399Z,61.33
2022-11-30T18:47:36.383Z,59.50
2022-11-30T18:50:24.679Z,52.30
2022-11-30T18:53:15.208Z,69.10
2022-11-30T18:56:09.882Z,59.97
2022-11-30T18:58:57.710Z,54.23
2022-11-30T19:01:44.195Z,49.57
2022-11-30T19:04:31.260Z,54.97
2022-11-30T19:07:19.177Z,49.90
2022-11-30T19:10:06.439Z,48.37
2022-11-30T19:12:53.184Z,40.17
2022-11-30T19:15:40.798Z,38.37
2022-11-30T19:18:27.278Z,37.13
2022-11-30T19:21:15.875Z,35.57
2022-11-30T19:24:04.112Z,36.03
2022-11-30T19:26:50.899Z,36.23
2022-11-30T19:29:37.199Z,28.13
2022-11-30T19:32:23.899Z,32.07
2022-11-30T19:35:10.536Z,25.57
2022-11-30T19:37:57.241Z,29.17
2022-11-30T19:40:45.128Z,25.63
2022-11-30T19:43:31.966Z,25.90
2022-11-30T19:46:18.851Z,28.63
2022-11-30T19:49:07.934Z,29.37
2022-11-30T19:51:54.347Z,25.17
2022-11-30T19:54:40.747Z,25.43
2022-11-30T19:57:28.570Z,24.13
2022-11-30T20:00:16.194Z,19.77
2022-11-30T20:03:09.627Z,23.73
2022-11-30T20:05:56.521Z,27.80
2022-11-30T20:08:42.964Z,23.50
2022-11-30T20:11:29.675Z,18.70
2022-11-30T20:14:18.165Z,20.67
2022-11-30T20:17:05.303Z,20.57
2022-11-30T20:19:51.995Z,24.10
2022-11-30T20:22:38.635Z,19.13
2022-11-30T20:25:25.200Z,22.33
2022-11-30T20:28:12.676Z,25.43
2022-11-30T20:31:04.646Z,24.20
2022-11-30T20:33:51.547Z,20.33
2022-11-30T20:36:38.390Z,23.87
2022-11-30T20:39:24.973Z,27.13
2022-11-30T20:42:11.357Z,20.77
2022-11-30T20:44:57.928Z,24.63
2022-11-30T20:47:45.830Z,24.20
2022-11-30T20:50:32.539Z,24.13
2022-11-30T20:53:19.100Z,29.23
2022-11-30T20:56:06.178Z,26.67
2022-11-30T20:58:52.964Z,29.53
2022-11-30T21:01:41.898Z,31.03
2022-11-30T21:04:30.190Z,36.17
2022-11-30T21:07:17.301Z,32.80
2022-11-30T21:10:03.987Z,32.33
2022-11-30T21:12:52.483Z,35.80
2022-11-30T21:15:39.226Z,37.53
2022-11-30T21:18:26.482Z,33.73
2022-11-30T21:21:17.243Z,32.27
2022-11-30T21:24:07.669Z,31.73
2022-11-30T21:26:54.100Z,30.63
2022-11-30T21:29:40.492Z,33.27
2022-11-30T21:32:26.966Z,32.27
2022-11-30T21:35:13.781Z,31.57
2022-11-30T21:38:01.948Z,33.60
2022-11-30T21:40:55.548Z,30.77
2022-11-30T21:43:43.103Z,31.23
2022-11-30T21:46:30.080Z,28.97
2022-11-30T21:49:17.308Z,26.90
2022-11-30T21:52:04.090Z,30.43
2022-11-30T21:54:53.518Z,29.50
2022-11-30T21:57:40.911Z,25.03
2022-11-30T22:00:27.394Z,27.57
2022-11-30T22:03:19.216Z,24.93
2022-11-30T22:06:09.069Z,30.90
2022-11-30T22:08:57.465Z,30.70
2022-11-30T22:11:46.636Z,31.37
2022-11-30T22:14:33.482Z,27.87
2022-11-30T22:17:19.994Z,28.03
2022-11-30T22:20:08.101Z,23.97
2022-11-30T22:22:54.992Z,34.80
2022-11-30T22:25:41.463Z,28.17
2022-11-30T22:28:29.172Z,27.67
2022-11-30T22:31:17.678Z,26.90
2022-11-30T22:34:05.040Z,27.43
2022-11-30T22:36:51.777Z,33.23
2022-11-30T22:39:38.343Z,33.27
2022-11-30T22:42:24.813Z,31.30
2022-11-30T22:45:13.028Z,29.27
2022-11-30T22:47:59.886Z,36.30
2022-11-30T22:50:46.422Z,38.07
2022-11-30T22:53:33.261Z,39.23
2022-11-30T22:56:21.602Z,36.57
2022-11-30T22:59:09.624Z,35.30
2022-11-30T23:01:57.438Z,40.33
2022-11-30T23:04:44.199Z,42.03
2022-11-30T23:07:32.247Z,35.47
2022-11-30T23:10:19.346Z,42.53
2022-11-30T23:13:06.127Z,40.20
2022-11-30T23:15:54.154Z,37.57
2022-11-30T23:18:44.928Z,46.60
2022-11-30T23:21:38.929Z,35.80
2022-11-30T23:24:27.389Z,43.00
2022-11-30T23:27:14.050Z,41.00
2022-11-30T23:30:00.552Z,44.27
2022-11-30T23:32:47.489Z,41.20
2022-11-30T23:35:35.304Z,43.03
2022-11-30T23:38:22.133Z,39.47
2022-11-30T23:41:10.169Z,39.83
2022-11-30T23:43:56.931Z,44.60
2022-11-30T23:46:43.523Z,40.10
2022-11-30T23:49:30.377Z,39.30
2022-11-30T23:52:18.312Z,36.83
2022-11-30T23:55:05.575Z,33.90
2022-11-30T23:57:52.154Z,39.27
